sensor_id;sensor_type;location;lat;lon;timestamp;P1;durP1;ratioP1;P2;durP2;ratioP2
59504;SDS011;45321;53.200;5.814;2023-07-31T00:00:33;10.80;;;2.45;;
59504;SDS011;45321;53.200;5.814;2023-07-31T00:02:59;8.13;;;2.55;;
59504;SDS011;45321;53.200;5.814;2023-07-31T00:05:24;12.02;;;2.90;;
59504;SDS011;45321;53.200;5.814;2023-07-31T00:07:50;6.93;;;2.10;;
59504;SDS011;45321;53.200;5.814;2023-07-31T00:10:16;11.48;;;2.00;;
59504;SDS011;45321;53.200;5.814;2023-07-31T00:12:42;7.63;;;1.80;;
59504;SDS011;45321;53.200;5.814;2023-07-31T00:15:10;6.75;;;2.28;;
59504;SDS011;45321;53.200;5.814;2023-07-31T00:17:36;9.82;;;1.85;;
59504;SDS011;45321;53.200;5.814;2023-07-31T00:20:02;8.15;;;1.98;;
59504;SDS011;45321;53.200;5.814;2023-07-31T00:22:28;5.55;;;1.73;;
59504;SDS011;45321;53.200;5.814;2023-07-31T00:24:55;5.95;;;1.80;;
59504;SDS011;45321;53.200;5.814;2023-07-31T00:27:21;7.50;;;2.15;;
59504;SDS011;45321;53.200;5.814;2023-07-31T00:29:47;8.60;;;1.73;;
59504;SDS011;45321;53.200;5.814;2023-07-31T00:32:12;9.05;;;2.00;;
59504;SDS011;45321;53.200;5.814;2023-07-31T00:34:38;10.75;;;2.50;;
59504;SDS011;45321;53.200;5.814;2023-07-31T00:37:04;8.18;;;1.90;;
59504;SDS011;45321;53.200;5.814;2023-07-31T00:39:30;8.52;;;2.10;;
59504;SDS011;45321;53.200;5.814;2023-07-31T00:41:56;7.55;;;1.60;;
59504;SDS011;45321;53.200;5.814;2023-07-31T00:44:21;9.32;;;1.80;;
59504;SDS011;45321;53.200;5.814;2023-07-31T00:46:47;10.80;;;1.95;;
59504;SDS011;45321;53.200;5.814;2023-07-31T00:49:14;4.80;;;1.75;;
59504;SDS011;45321;53.200;5.814;2023-07-31T00:51:40;11.93;;;2.25;;
59504;SDS011;45321;53.200;5.814;2023-07-31T00:54:06;7.75;;;1.50;;
59504;SDS011;45321;53.200;5.814;2023-07-31T00:56:32;6.63;;;1.58;;
59504;SDS011;45321;53.200;5.814;2023-07-31T00:58:57;7.88;;;1.83;;
59504;SDS011;45321;53.200;5.814;2023-07-31T01:01:23;6.20;;;1.67;;
59504;SDS011;45321;53.200;5.814;2023-07-31T01:03:50;9.43;;;1.88;;
59504;SDS011;45321;53.200;5.814;2023-07-31T01:06:24;7.63;;;1.92;;
59504;SDS011;45321;53.200;5.814;2023-07-31T01:11:39;7.90;;;1.88;;
59504;SDS011;45321;53.200;5.814;2023-07-31T01:14:12;10.90;;;1.75;;
59504;SDS011;45321;53.200;5.814;2023-07-31T01:16:38;9.23;;;1.83;;
59504;SDS011;45321;53.200;5.814;2023-07-31T01:19:04;9.63;;;1.83;;
59504;SDS011;45321;53.200;5.814;2023-07-31T01:27:06;6.70;;;1.50;;
59504;SDS011;45321;53.200;5.814;2023-07-31T01:32:03;5.97;;;1.60;;
59504;SDS011;45321;53.200;5.814;2023-07-31T01:34:31;12.35;;;2.10;;
59504;SDS011;45321;53.200;5.814;2023-07-31T01:36:58;6.40;;;1.80;;
59504;SDS011;45321;53.200;5.814;2023-07-31T01:39:24;8.75;;;1.80;;
59504;SDS011;45321;53.200;5.814;2023-07-31T01:41:50;7.82;;;1.80;;
59504;SDS011;45321;53.200;5.814;2023-07-31T01:44:16;9.23;;;1.90;;
59504;SDS011;45321;53.200;5.814;2023-07-31T01:46:41;12.45;;;2.83;;
59504;SDS011;45321;53.200;5.814;2023-07-31T01:49:07;5.68;;;1.92;;
59504;SDS011;45321;53.200;5.814;2023-07-31T01:51:33;8.00;;;1.85;;
59504;SDS011;45321;53.200;5.814;2023-07-31T01:54:02;7.03;;;1.35;;
59504;SDS011;45321;53.200;5.814;2023-07-31T01:56:28;7.28;;;2.35;;
59504;SDS011;45321;53.200;5.814;2023-07-31T01:58:54;6.03;;;1.75;;
59504;SDS011;45321;53.200;5.814;2023-07-31T02:01:19;9.50;;;1.83;;
59504;SDS011;45321;53.200;5.814;2023-07-31T02:03:45;7.15;;;1.52;;
59504;SDS011;45321;53.200;5.814;2023-07-31T02:06:11;6.25;;;1.45;;
59504;SDS011;45321;53.200;5.814;2023-07-31T02:08:36;8.65;;;1.75;;
59504;SDS011;45321;53.200;5.814;2023-07-31T02:11:02;9.02;;;2.05;;
59504;SDS011;45321;53.200;5.814;2023-07-31T02:13:28;3.50;;;1.20;;
59504;SDS011;45321;53.200;5.814;2023-07-31T02:15:54;5.35;;;1.35;;
59504;SDS011;45321;53.200;5.814;2023-07-31T02:18:20;4.93;;;1.50;;
59504;SDS011;45321;53.200;5.814;2023-07-31T02:20:50;7.53;;;1.90;;
59504;SDS011;45321;53.200;5.814;2023-07-31T02:23:17;7.35;;;1.80;;
59504;SDS011;45321;53.200;5.814;2023-07-31T02:25:44;7.28;;;1.95;;
59504;SDS011;45321;53.200;5.814;2023-07-31T02:28:10;3.78;;;1.55;;
59504;SDS011;45321;53.200;5.814;2023-07-31T02:30:35;7.20;;;1.70;;
59504;SDS011;45321;53.200;5.814;2023-07-31T02:33:01;7.72;;;1.60;;
59504;SDS011;45321;53.200;5.814;2023-07-31T02:35:27;7.72;;;1.52;;
59504;SDS011;45321;53.200;5.814;2023-07-31T02:37:53;5.85;;;1.45;;
59504;SDS011;45321;53.200;5.814;2023-07-31T02:40:19;5.57;;;1.65;;
59504;SDS011;45321;53.200;5.814;2023-07-31T02:42:45;8.88;;;1.95;;
59504;SDS011;45321;53.200;5.814;2023-07-31T02:45:10;3.55;;;1.70;;
59504;SDS011;45321;53.200;5.814;2023-07-31T02:47:36;4.85;;;1.85;;
59504;SDS011;45321;53.200;5.814;2023-07-31T02:50:02;6.85;;;2.03;;
59504;SDS011;45321;53.200;5.814;2023-07-31T02:52:28;4.88;;;1.85;;
59504;SDS011;45321;53.200;5.814;2023-07-31T02:54:54;5.95;;;1.65;;
59504;SDS011;45321;53.200;5.814;2023-07-31T02:57:20;6.07;;;1.20;;
59504;SDS011;45321;53.200;5.814;2023-07-31T02:59:46;6.15;;;1.25;;
59504;SDS011;45321;53.200;5.814;2023-07-31T03:02:12;8.32;;;1.40;;
59504;SDS011;45321;53.200;5.814;2023-07-31T03:04:38;4.85;;;1.13;;
59504;SDS011;45321;53.200;5.814;2023-07-31T03:07:04;3.78;;;1.23;;
59504;SDS011;45321;53.200;5.814;2023-07-31T03:09:30;2.30;;;0.88;;
59504;SDS011;45321;53.200;5.814;2023-07-31T03:11:55;3.97;;;1.10;;
59504;SDS011;45321;53.200;5.814;2023-07-31T03:14:21;4.15;;;1.67;;
59504;SDS011;45321;53.200;5.814;2023-07-31T03:16:48;3.85;;;1.23;;
59504;SDS011;45321;53.200;5.814;2023-07-31T03:19:14;2.15;;;1.00;;
59504;SDS011;45321;53.200;5.814;2023-07-31T03:21:39;2.95;;;1.13;;
59504;SDS011;45321;53.200;5.814;2023-07-31T03:24:05;2.72;;;1.10;;
59504;SDS011;45321;53.200;5.814;2023-07-31T03:26:31;1.95;;;1.10;;
59504;SDS011;45321;53.200;5.814;2023-07-31T03:28:57;2.55;;;1.08;;
59504;SDS011;45321;53.200;5.814;2023-07-31T03:31:23;2.63;;;1.20;;
59504;SDS011;45321;53.200;5.814;2023-07-31T03:33:49;3.20;;;1.02;;
59504;SDS011;45321;53.200;5.814;2023-07-31T03:36:15;2.60;;;1.02;;
59504;SDS011;45321;53.200;5.814;2023-07-31T03:38:40;1.25;;;0.90;;
59504;SDS011;45321;53.200;5.814;2023-07-31T03:41:06;1.48;;;0.70;;
59504;SDS011;45321;53.200;5.814;2023-07-31T03:43:32;2.13;;;0.85;;
59504;SDS011;45321;53.200;5.814;2023-07-31T03:46:00;2.08;;;0.95;;
59504;SDS011;45321;53.200;5.814;2023-07-31T03:48:27;1.83;;;1.00;;
59504;SDS011;45321;53.200;5.814;2023-07-31T03:50:53;0.75;;;0.55;;
59504;SDS011;45321;53.200;5.814;2023-07-31T03:53:19;1.33;;;0.68;;
59504;SDS011;45321;53.200;5.814;2023-07-31T03:55:45;1.98;;;0.80;;
59504;SDS011;45321;53.200;5.814;2023-07-31T03:58:11;1.35;;;0.80;;
59504;SDS011;45321;53.200;5.814;2023-07-31T04:00:37;1.83;;;0.80;;
59504;SDS011;45321;53.200;5.814;2023-07-31T04:03:03;1.17;;;0.50;;
59504;SDS011;45321;53.200;5.814;2023-07-31T04:05:32;0.93;;;0.70;;
59504;SDS011;45321;53.200;5.814;2023-07-31T04:07:58;2.05;;;0.90;;
59504;SDS011;45321;53.200;5.814;2023-07-31T04:10:23;3.38;;;0.80;;
59504;SDS011;45321;53.200;5.814;2023-07-31T04:12:49;4.75;;;1.10;;
59504;SDS011;45321;53.200;5.814;2023-07-31T04:15:15;5.15;;;0.93;;
59504;SDS011;45321;53.200;5.814;2023-07-31T04:17:41;3.47;;;0.95;;
59504;SDS011;45321;53.200;5.814;2023-07-31T04:20:07;2.70;;;1.30;;
59504;SDS011;45321;53.200;5.814;2023-07-31T04:22:33;4.20;;;1.58;;
59504;SDS011;45321;53.200;5.814;2023-07-31T04:24:59;4.22;;;1.73;;
59504;SDS011;45321;53.200;5.814;2023-07-31T04:27:25;5.93;;;1.85;;
59504;SDS011;45321;53.200;5.814;2023-07-31T04:29:51;7.18;;;2.60;;
59504;SDS011;45321;53.200;5.814;2023-07-31T04:32:17;10.45;;;3.30;;
59504;SDS011;45321;53.200;5.814;2023-07-31T04:34:43;15.25;;;5.50;;
59504;SDS011;45321;53.200;5.814;2023-07-31T04:37:09;11.75;;;4.47;;
59504;SDS011;45321;53.200;5.814;2023-07-31T04:39:34;13.45;;;5.72;;
59504;SDS011;45321;53.200;5.814;2023-07-31T04:42:00;14.57;;;4.68;;
59504;SDS011;45321;53.200;5.814;2023-07-31T04:44:26;11.73;;;4.82;;
59504;SDS011;45321;53.200;5.814;2023-07-31T04:46:51;12.00;;;5.32;;
59504;SDS011;45321;53.200;5.814;2023-07-31T04:49:17;17.45;;;5.60;;
59504;SDS011;45321;53.200;5.814;2023-07-31T04:51:44;14.18;;;4.85;;
59504;SDS011;45321;53.200;5.814;2023-07-31T04:54:09;12.52;;;4.55;;
59504;SDS011;45321;53.200;5.814;2023-07-31T04:56:37;10.02;;;4.00;;
59504;SDS011;45321;53.200;5.814;2023-07-31T04:59:03;10.48;;;4.60;;
59504;SDS011;45321;53.200;5.814;2023-07-31T05:01:29;10.68;;;4.50;;
59504;SDS011;45321;53.200;5.814;2023-07-31T05:03:55;13.30;;;4.00;;
59504;SDS011;45321;53.200;5.814;2023-07-31T05:06:20;13.60;;;3.90;;
59504;SDS011;45321;53.200;5.814;2023-07-31T05:08:46;14.57;;;4.72;;
59504;SDS011;45321;53.200;5.814;2023-07-31T05:11:12;14.93;;;4.68;;
59504;SDS011;45321;53.200;5.814;2023-07-31T05:13:37;14.60;;;4.80;;
59504;SDS011;45321;53.200;5.814;2023-07-31T05:16:03;15.35;;;4.82;;
59504;SDS011;45321;53.200;5.814;2023-07-31T05:18:29;17.40;;;5.15;;
59504;SDS011;45321;53.200;5.814;2023-07-31T05:20:55;18.73;;;4.82;;
59504;SDS011;45321;53.200;5.814;2023-07-31T05:23:20;15.05;;;5.40;;
59504;SDS011;45321;53.200;5.814;2023-07-31T05:25:46;14.63;;;5.30;;
59504;SDS011;45321;53.200;5.814;2023-07-31T05:28:12;13.40;;;5.18;;
59504;SDS011;45321;53.200;5.814;2023-07-31T05:30:38;17.70;;;5.60;;
59504;SDS011;45321;53.200;5.814;2023-07-31T05:33:03;18.42;;;6.22;;
59504;SDS011;45321;53.200;5.814;2023-07-31T05:35:29;21.05;;;6.57;;
59504;SDS011;45321;53.200;5.814;2023-07-31T05:37:55;19.15;;;6.22;;
59504;SDS011;45321;53.200;5.814;2023-07-31T05:40:21;26.60;;;7.45;;
59504;SDS011;45321;53.200;5.814;2023-07-31T05:42:47;19.95;;;6.43;;
59504;SDS011;45321;53.200;5.814;2023-07-31T05:45:12;18.73;;;6.38;;
59504;SDS011;45321;53.200;5.814;2023-07-31T05:47:38;17.33;;;5.15;;
59504;SDS011;45321;53.200;5.814;2023-07-31T05:50:04;15.13;;;5.03;;
59504;SDS011;45321;53.200;5.814;2023-07-31T05:52:30;15.50;;;4.18;;
59504;SDS011;45321;53.200;5.814;2023-07-31T05:54:56;11.25;;;3.88;;
59504;SDS011;45321;53.200;5.814;2023-07-31T05:57:22;9.02;;;3.05;;
59504;SDS011;45321;53.200;5.814;2023-07-31T05:59:48;8.27;;;3.20;;
59504;SDS011;45321;53.200;5.814;2023-07-31T06:02:14;7.13;;;3.05;;
59504;SDS011;45321;53.200;5.814;2023-07-31T06:04:40;10.77;;;3.28;;
59504;SDS011;45321;53.200;5.814;2023-07-31T06:07:05;9.60;;;3.03;;
59504;SDS011;45321;53.200;5.814;2023-07-31T06:09:32;10.55;;;3.65;;
59504;SDS011;45321;53.200;5.814;2023-07-31T06:11:57;10.55;;;3.58;;
59504;SDS011;45321;53.200;5.814;2023-07-31T06:14:23;14.40;;;3.90;;
59504;SDS011;45321;53.200;5.814;2023-07-31T06:16:49;9.85;;;3.50;;
59504;SDS011;45321;53.200;5.814;2023-07-31T06:19:15;8.20;;;3.35;;
59504;SDS011;45321;53.200;5.814;2023-07-31T06:21:40;11.43;;;3.88;;
59504;SDS011;45321;53.200;5.814;2023-07-31T06:24:08;14.05;;;4.40;;
59504;SDS011;45321;53.200;5.814;2023-07-31T06:26:37;14.02;;;4.65;;
59504;SDS011;45321;53.200;5.814;2023-07-31T06:29:02;13.60;;;4.57;;
59504;SDS011;45321;53.200;5.814;2023-07-31T06:31:28;14.85;;;5.00;;
59504;SDS011;45321;53.200;5.814;2023-07-31T06:33:54;19.55;;;5.68;;
59504;SDS011;45321;53.200;5.814;2023-07-31T06:36:20;21.00;;;5.55;;
59504;SDS011;45321;53.200;5.814;2023-07-31T06:38:45;15.25;;;5.03;;
59504;SDS011;45321;53.200;5.814;2023-07-31T06:41:11;16.48;;;5.18;;
59504;SDS011;45321;53.200;5.814;2023-07-31T06:43:37;13.05;;;5.10;;
59504;SDS011;45321;53.200;5.814;2023-07-31T06:46:06;17.50;;;5.40;;
59504;SDS011;45321;53.200;5.814;2023-07-31T06:48:32;17.33;;;5.50;;
59504;SDS011;45321;53.200;5.814;2023-07-31T06:50:59;20.45;;;5.95;;
59504;SDS011;45321;53.200;5.814;2023-07-31T06:53:25;14.55;;;3.88;;
59504;SDS011;45321;53.200;5.814;2023-07-31T06:55:51;13.35;;;3.58;;
59504;SDS011;45321;53.200;5.814;2023-07-31T06:58:17;9.63;;;3.00;;
59504;SDS011;45321;53.200;5.814;2023-07-31T07:00:43;8.45;;;2.65;;
59504;SDS011;45321;53.200;5.814;2023-07-31T07:03:09;9.57;;;3.20;;
59504;SDS011;45321;53.200;5.814;2023-07-31T07:05:34;8.15;;;3.22;;
59504;SDS011;45321;53.200;5.814;2023-07-31T07:08:00;7.25;;;3.13;;
59504;SDS011;45321;53.200;5.814;2023-07-31T07:10:26;11.18;;;3.08;;
59504;SDS011;45321;53.200;5.814;2023-07-31T07:12:52;6.50;;;2.63;;
59504;SDS011;45321;53.200;5.814;2023-07-31T07:15:18;7.88;;;2.97;;
59504;SDS011;45321;53.200;5.814;2023-07-31T07:17:43;5.65;;;2.28;;
59504;SDS011;45321;53.200;5.814;2023-07-31T07:20:09;4.93;;;2.05;;
59504;SDS011;45321;53.200;5.814;2023-07-31T07:22:35;5.32;;;1.80;;
59504;SDS011;45321;53.200;5.814;2023-07-31T07:25:01;4.35;;;2.05;;
59504;SDS011;45321;53.200;5.814;2023-07-31T07:27:27;4.85;;;1.95;;
59504;SDS011;45321;53.200;5.814;2023-07-31T07:29:53;4.35;;;2.00;;
59504;SDS011;45321;53.200;5.814;2023-07-31T07:32:20;4.82;;;2.03;;
59504;SDS011;45321;53.200;5.814;2023-07-31T07:34:46;4.95;;;1.90;;
59504;SDS011;45321;53.200;5.814;2023-07-31T07:37:12;8.48;;;1.77;;
59504;SDS011;45321;53.200;5.814;2023-07-31T07:39:38;3.10;;;1.67;;
59504;SDS011;45321;53.200;5.814;2023-07-31T07:42:04;2.75;;;1.20;;
59504;SDS011;45321;53.200;5.814;2023-07-31T07:44:30;3.85;;;1.58;;
59504;SDS011;45321;53.200;5.814;2023-07-31T07:46:55;2.40;;;1.30;;
59504;SDS011;45321;53.200;5.814;2023-07-31T07:49:21;3.22;;;0.95;;
59504;SDS011;45321;53.200;5.814;2023-07-31T07:51:50;1.95;;;0.85;;
59504;SDS011;45321;53.200;5.814;2023-07-31T07:54:15;2.72;;;0.52;;
59504;SDS011;45321;53.200;5.814;2023-07-31T07:56:46;0.95;;;0.50;;
59504;SDS011;45321;53.200;5.814;2023-07-31T07:59:12;1.25;;;0.43;;
59504;SDS011;45321;53.200;5.814;2023-07-31T08:01:37;3.08;;;0.65;;
59504;SDS011;45321;53.200;5.814;2023-07-31T08:04:03;1.98;;;0.70;;
59504;SDS011;45321;53.200;5.814;2023-07-31T08:06:29;1.35;;;0.50;;
59504;SDS011;45321;53.200;5.814;2023-07-31T08:08:55;1.83;;;0.70;;
59504;SDS011;45321;53.200;5.814;2023-07-31T08:11:21;1.52;;;0.40;;
59504;SDS011;45321;53.200;5.814;2023-07-31T08:13:48;2.38;;;0.80;;
59504;SDS011;45321;53.200;5.814;2023-07-31T08:16:14;2.90;;;0.90;;
59504;SDS011;45321;53.200;5.814;2023-07-31T08:18:40;3.55;;;0.85;;
59504;SDS011;45321;53.200;5.814;2023-07-31T08:21:07;4.28;;;1.10;;
59504;SDS011;45321;53.200;5.814;2023-07-31T08:23:33;6.05;;;1.33;;
59504;SDS011;45321;53.200;5.814;2023-07-31T08:25:59;5.03;;;0.95;;
59504;SDS011;45321;53.200;5.814;2023-07-31T08:28:25;3.72;;;1.00;;
59504;SDS011;45321;53.200;5.814;2023-07-31T08:30:51;3.22;;;0.98;;
59504;SDS011;45321;53.200;5.814;2023-07-31T08:33:17;6.30;;;1.20;;
59504;SDS011;45321;53.200;5.814;2023-07-31T08:35:43;6.90;;;1.30;;
59504;SDS011;45321;53.200;5.814;2023-07-31T08:38:08;4.75;;;1.10;;
59504;SDS011;45321;53.200;5.814;2023-07-31T08:40:37;3.25;;;1.25;;
59504;SDS011;45321;53.200;5.814;2023-07-31T08:43:04;4.72;;;0.73;;
59504;SDS011;45321;53.200;5.814;2023-07-31T08:45:30;5.57;;;1.00;;
59504;SDS011;45321;53.200;5.814;2023-07-31T08:47:57;3.67;;;0.88;;
59504;SDS011;45321;53.200;5.814;2023-07-31T08:50:24;3.95;;;1.13;;
59504;SDS011;45321;53.200;5.814;2023-07-31T08:52:50;4.55;;;0.93;;
59504;SDS011;45321;53.200;5.814;2023-07-31T08:55:17;2.35;;;0.60;;
59504;SDS011;45321;53.200;5.814;2023-07-31T08:57:48;3.47;;;0.70;;
59504;SDS011;45321;53.200;5.814;2023-07-31T09:00:16;2.35;;;0.50;;
59504;SDS011;45321;53.200;5.814;2023-07-31T09:02:48;3.63;;;0.63;;
59504;SDS011;45321;53.200;5.814;2023-07-31T09:05:21;4.03;;;0.75;;
59504;SDS011;45321;53.200;5.814;2023-07-31T09:07:48;2.45;;;0.80;;
59504;SDS011;45321;53.200;5.814;2023-07-31T09:10:16;2.47;;;1.15;;
59504;SDS011;45321;53.200;5.814;2023-07-31T09:12:42;3.28;;;0.95;;
59504;SDS011;45321;53.200;5.814;2023-07-31T09:15:08;2.75;;;1.00;;
59504;SDS011;45321;53.200;5.814;2023-07-31T09:17:35;3.22;;;1.13;;
59504;SDS011;45321;53.200;5.814;2023-07-31T09:20:20;4.78;;;1.13;;
59504;SDS011;45321;53.200;5.814;2023-07-31T09:22:48;2.60;;;0.70;;
59504;SDS011;45321;53.200;5.814;2023-07-31T09:25:23;1.38;;;0.47;;
59504;SDS011;45321;53.200;5.814;2023-07-31T09:27:54;1.33;;;0.70;;
59504;SDS011;45321;53.200;5.814;2023-07-31T09:30:24;1.40;;;0.40;;
59504;SDS011;45321;53.200;5.814;2023-07-31T09:32:50;0.75;;;0.43;;
59504;SDS011;45321;53.200;5.814;2023-07-31T09:37:55;1.45;;;0.50;;
59504;SDS011;45321;53.200;5.814;2023-07-31T09:42:53;2.08;;;0.55;;
59504;SDS011;45321;53.200;5.814;2023-07-31T09:45:21;4.22;;;1.08;;
59504;SDS011;45321;53.200;5.814;2023-07-31T09:47:47;3.45;;;1.05;;
59504;SDS011;45321;53.200;5.814;2023-07-31T09:50:14;6.13;;;1.48;;
59504;SDS011;45321;53.200;5.814;2023-07-31T09:52:41;5.38;;;1.90;;
59504;SDS011;45321;53.200;5.814;2023-07-31T09:55:07;3.38;;;1.15;;
59504;SDS011;45321;53.200;5.814;2023-07-31T09:57:33;4.78;;;1.50;;
59504;SDS011;45321;53.200;5.814;2023-07-31T10:00:02;8.48;;;1.30;;
59504;SDS011;45321;53.200;5.814;2023-07-31T10:02:27;4.90;;;1.52;;
59504;SDS011;45321;53.200;5.814;2023-07-31T10:04:56;2.55;;;1.50;;
59504;SDS011;45321;53.200;5.814;2023-07-31T10:07:24;3.50;;;1.25;;
59504;SDS011;45321;53.200;5.814;2023-07-31T10:09:51;4.63;;;2.30;;
59504;SDS011;45321;53.200;5.814;2023-07-31T10:12:19;4.07;;;1.88;;
59504;SDS011;45321;53.200;5.814;2023-07-31T10:14:48;9.82;;;2.05;;
59504;SDS011;45321;53.200;5.814;2023-07-31T10:17:13;7.50;;;1.80;;
59504;SDS011;45321;53.200;5.814;2023-07-31T10:19:40;4.32;;;1.52;;
59504;SDS011;45321;53.200;5.814;2023-07-31T10:22:06;5.10;;;1.88;;
59504;SDS011;45321;53.200;5.814;2023-07-31T10:24:33;4.20;;;1.60;;
59504;SDS011;45321;53.200;5.814;2023-07-31T10:27:00;2.63;;;1.02;;
59504;SDS011;45321;53.200;5.814;2023-07-31T10:29:28;6.00;;;1.30;;
59504;SDS011;45321;53.200;5.814;2023-07-31T10:31:56;3.78;;;0.90;;
59504;SDS011;45321;53.200;5.814;2023-07-31T10:34:23;2.85;;;0.90;;
59504;SDS011;45321;53.200;5.814;2023-07-31T10:36:49;2.67;;;1.10;;
59504;SDS011;45321;53.200;5.814;2023-07-31T10:42:19;4.53;;;1.65;;
59504;SDS011;45321;53.200;5.814;2023-07-31T10:44:56;5.10;;;1.50;;
59504;SDS011;45321;53.200;5.814;2023-07-31T10:47:26;3.97;;;1.73;;
59504;SDS011;45321;53.200;5.814;2023-07-31T10:49:52;4.57;;;1.67;;
59504;SDS011;45321;53.200;5.814;2023-07-31T10:52:21;5.72;;;1.67;;
59504;SDS011;45321;53.200;5.814;2023-07-31T10:57:40;5.70;;;2.70;;
59504;SDS011;45321;53.200;5.814;2023-07-31T11:05:53;3.97;;;2.10;;
59504;SDS011;45321;53.200;5.814;2023-07-31T11:13:31;6.43;;;1.70;;
59504;SDS011;45321;53.200;5.814;2023-07-31T11:16:17;9.27;;;1.98;;
59504;SDS011;45321;53.200;5.814;2023-07-31T11:18:45;6.25;;;2.00;;
59504;SDS011;45321;53.200;5.814;2023-07-31T11:21:23;7.10;;;2.80;;
59504;SDS011;45321;53.200;5.814;2023-07-31T11:23:50;9.98;;;2.22;;
59504;SDS011;45321;53.200;5.814;2023-07-31T11:26:18;7.85;;;2.17;;
59504;SDS011;45321;53.200;5.814;2023-07-31T11:28:47;6.88;;;3.47;;
59504;SDS011;45321;53.200;5.814;2023-07-31T11:31:14;13.23;;;4.97;;
59504;SDS011;45321;53.200;5.814;2023-07-31T11:33:40;3.95;;;1.38;;
59504;SDS011;45321;53.200;5.814;2023-07-31T11:36:06;5.85;;;2.10;;
59504;SDS011;45321;53.200;5.814;2023-07-31T11:38:39;3.38;;;1.10;;
59504;SDS011;45321;53.200;5.814;2023-07-31T11:41:05;3.00;;;1.30;;
59504;SDS011;45321;53.200;5.814;2023-07-31T11:43:31;2.60;;;1.30;;
59504;SDS011;45321;53.200;5.814;2023-07-31T11:46:00;5.88;;;1.42;;
59504;SDS011;45321;53.200;5.814;2023-07-31T11:48:29;4.55;;;1.80;;
59504;SDS011;45321;53.200;5.814;2023-07-31T11:51:00;2.92;;;1.42;;
59504;SDS011;45321;53.200;5.814;2023-07-31T11:56:02;7.63;;;2.65;;
59504;SDS011;45321;53.200;5.814;2023-07-31T11:58:31;7.05;;;2.47;;
59504;SDS011;45321;53.200;5.814;2023-07-31T12:00:59;5.95;;;2.63;;
59504;SDS011;45321;53.200;5.814;2023-07-31T12:03:25;5.43;;;2.20;;
59504;SDS011;45321;53.200;5.814;2023-07-31T12:05:52;6.43;;;3.10;;
59504;SDS011;45321;53.200;5.814;2023-07-31T12:08:18;9.93;;;2.75;;
59504;SDS011;45321;53.200;5.814;2023-07-31T12:10:46;11.52;;;3.60;;
59504;SDS011;45321;53.200;5.814;2023-07-31T12:13:21;9.05;;;2.55;;
59504;SDS011;45321;53.200;5.814;2023-07-31T12:15:48;7.75;;;2.80;;
59504;SDS011;45321;53.200;5.814;2023-07-31T12:18:19;11.25;;;3.38;;
59504;SDS011;45321;53.200;5.814;2023-07-31T12:20:49;15.20;;;3.22;;
59504;SDS011;45321;53.200;5.814;2023-07-31T12:23:20;9.70;;;3.08;;
59504;SDS011;45321;53.200;5.814;2023-07-31T12:26:13;14.25;;;3.78;;
59504;SDS011;45321;53.200;5.814;2023-07-31T12:28:43;12.13;;;3.28;;
59504;SDS011;45321;53.200;5.814;2023-07-31T12:31:14;11.98;;;3.17;;
59504;SDS011;45321;53.200;5.814;2023-07-31T12:33:42;11.73;;;2.85;;
59504;SDS011;45321;53.200;5.814;2023-07-31T12:36:12;12.57;;;3.15;;
59504;SDS011;45321;53.200;5.814;2023-07-31T12:38:40;12.98;;;3.22;;
59504;SDS011;45321;53.200;5.814;2023-07-31T12:41:07;14.50;;;2.95;;
59504;SDS011;45321;53.200;5.814;2023-07-31T12:43:33;12.48;;;2.83;;
59504;SDS011;45321;53.200;5.814;2023-07-31T12:46:03;10.02;;;2.80;;
59504;SDS011;45321;53.200;5.814;2023-07-31T12:48:29;12.38;;;3.78;;
59504;SDS011;45321;53.200;5.814;2023-07-31T12:50:56;13.55;;;3.10;;
59504;SDS011;45321;53.200;5.814;2023-07-31T12:53:21;11.05;;;3.42;;
59504;SDS011;45321;53.200;5.814;2023-07-31T12:55:47;39.63;;;20.52;;
59504;SDS011;45321;53.200;5.814;2023-07-31T12:58:13;18.90;;;5.22;;
59504;SDS011;45321;53.200;5.814;2023-07-31T13:00:39;10.65;;;3.50;;
59504;SDS011;45321;53.200;5.814;2023-07-31T13:03:04;10.73;;;3.53;;
59504;SDS011;45321;53.200;5.814;2023-07-31T13:05:30;12.25;;;2.78;;
59504;SDS011;45321;53.200;5.814;2023-07-31T13:07:56;10.02;;;2.88;;
59504;SDS011;45321;53.200;5.814;2023-07-31T13:10:23;10.13;;;2.97;;
59504;SDS011;45321;53.200;5.814;2023-07-31T13:12:49;9.27;;;2.88;;
59504;SDS011;45321;53.200;5.814;2023-07-31T13:15:15;10.50;;;2.80;;
59504;SDS011;45321;53.200;5.814;2023-07-31T13:17:41;11.23;;;2.50;;
59504;SDS011;45321;53.200;5.814;2023-07-31T13:20:07;7.60;;;2.50;;
59504;SDS011;45321;53.200;5.814;2023-07-31T13:22:33;8.65;;;2.55;;
59504;SDS011;45321;53.200;5.814;2023-07-31T13:24:59;19.20;;;7.57;;
59504;SDS011;45321;53.200;5.814;2023-07-31T13:27:25;10.85;;;5.75;;
59504;SDS011;45321;53.200;5.814;2023-07-31T13:29:51;13.05;;;5.90;;
59504;SDS011;45321;53.200;5.814;2023-07-31T13:32:17;10.68;;;3.47;;
59504;SDS011;45321;53.200;5.814;2023-07-31T13:34:44;11.90;;;2.95;;
59504;SDS011;45321;53.200;5.814;2023-07-31T13:37:10;11.85;;;3.25;;
59504;SDS011;45321;53.200;5.814;2023-07-31T13:39:36;10.57;;;3.10;;
59504;SDS011;45321;53.200;5.814;2023-07-31T13:42:02;7.10;;;2.92;;
59504;SDS011;45321;53.200;5.814;2023-07-31T13:44:31;10.32;;;2.90;;
59504;SDS011;45321;53.200;5.814;2023-07-31T13:46:57;8.65;;;3.10;;
59504;SDS011;45321;53.200;5.814;2023-07-31T13:49:23;9.43;;;2.90;;
59504;SDS011;45321;53.200;5.814;2023-07-31T13:51:49;9.18;;;2.70;;
59504;SDS011;45321;53.200;5.814;2023-07-31T13:54:15;10.80;;;3.88;;
59504;SDS011;45321;53.200;5.814;2023-07-31T13:56:41;10.63;;;3.25;;
59504;SDS011;45321;53.200;5.814;2023-07-31T13:59:08;14.35;;;3.95;;
59504;SDS011;45321;53.200;5.814;2023-07-31T14:01:33;11.43;;;3.63;;
59504;SDS011;45321;53.200;5.814;2023-07-31T14:03:59;12.10;;;3.85;;
59504;SDS011;45321;53.200;5.814;2023-07-31T14:06:25;13.70;;;4.53;;
59504;SDS011;45321;53.200;5.814;2023-07-31T14:08:50;14.70;;;3.30;;
59504;SDS011;45321;53.200;5.814;2023-07-31T14:11:16;9.98;;;3.83;;
59504;SDS011;45321;53.200;5.814;2023-07-31T14:13:43;13.32;;;3.50;;
59504;SDS011;45321;53.200;5.814;2023-07-31T14:16:08;9.75;;;2.97;;
59504;SDS011;45321;53.200;5.814;2023-07-31T14:18:34;13.23;;;3.58;;
59504;SDS011;45321;53.200;5.814;2023-07-31T14:21:00;14.73;;;3.65;;
59504;SDS011;45321;53.200;5.814;2023-07-31T14:23:26;14.98;;;3.70;;
59504;SDS011;45321;53.200;5.814;2023-07-31T14:25:51;13.85;;;3.42;;
59504;SDS011;45321;53.200;5.814;2023-07-31T14:28:17;12.43;;;3.60;;
59504;SDS011;45321;53.200;5.814;2023-07-31T14:30:43;12.18;;;3.70;;
59504;SDS011;45321;53.200;5.814;2023-07-31T14:33:09;12.57;;;3.78;;
59504;SDS011;45321;53.200;5.814;2023-07-31T14:35:34;13.70;;;4.07;;
59504;SDS011;45321;53.200;5.814;2023-07-31T14:38:01;11.02;;;2.70;;
59504;SDS011;45321;53.200;5.814;2023-07-31T14:40:26;9.98;;;3.03;;
59504;SDS011;45321;53.200;5.814;2023-07-31T14:42:52;11.55;;;3.03;;
59504;SDS011;45321;53.200;5.814;2023-07-31T14:45:18;12.50;;;3.20;;
59504;SDS011;45321;53.200;5.814;2023-07-31T14:47:44;13.32;;;3.03;;
59504;SDS011;45321;53.200;5.814;2023-07-31T14:50:09;10.88;;;2.45;;
59504;SDS011;45321;53.200;5.814;2023-07-31T14:52:35;8.65;;;2.38;;
59504;SDS011;45321;53.200;5.814;2023-07-31T14:55:01;9.80;;;2.28;;
59504;SDS011;45321;53.200;5.814;2023-07-31T14:57:27;10.27;;;3.08;;
59504;SDS011;45321;53.200;5.814;2023-07-31T14:59:53;10.73;;;2.60;;
59504;SDS011;45321;53.200;5.814;2023-07-31T15:02:18;11.27;;;2.80;;
59504;SDS011;45321;53.200;5.814;2023-07-31T15:04:44;10.07;;;2.50;;
59504;SDS011;45321;53.200;5.814;2023-07-31T15:07:10;11.35;;;3.15;;
59504;SDS011;45321;53.200;5.814;2023-07-31T15:09:35;9.98;;;2.65;;
59504;SDS011;45321;53.200;5.814;2023-07-31T15:12:01;11.73;;;3.20;;
59504;SDS011;45321;53.200;5.814;2023-07-31T15:14:27;11.10;;;2.78;;